Time;durP1;ratioP1;P1;durP2;ratioP2;P2;SDS_P1;SDS_P2;PMS_P1;PMS_P2;Temp;Humidity;BMP_temperature;BMP_pressure;BME280_temperature;BME280_humidity;BME280_pressure;Samples;Min_cycle;Max_cycle;Signal;HPM_P1;HPM_P2
2022/10/01 00:01:46;;;;;;;;;;;15.60;93.20;;;;;;5073915;28;19938;-90
2022/10/01 00:04:11;;;;;;;;;;;15.60;93.30;;;;;;5073997;28;19962;-90
2022/10/01 00:06:37;;;;;;;;;;;15.60;93.40;;;;;;5074067;28;20302;-90
2022/10/01 00:09:02;;;;;;;;;;;15.50;93.50;;;;;;5073852;28;20386;-90
2022/10/01 00:11:29;;;;;;;;;;;15.50;93.50;;;;;;5073720;28;20330;-90
2022/10/01 00:13:56;;;;;;;;;;;15.50;93.50;;;;;;5073675;28;19942;-90
2022/10/01 00:16:23;;;;;;;;;;;15.50;93.50;;;;;;5073633;28;20034;-90
2022/10/01 00:18:49;;;;;;;;;;;15.50;93.50;;;;;;5073714;28;19955;-90
2022/10/01 00:21:20;;;;;;;;;;;15.50;93.50;;;;;;5073458;28;19945;-90
2022/10/01 00:23:46;;;;;;;;;;;15.50;93.50;;;;;;5073609;28;19968;-90
2022/10/01 00:26:12;;;;;;;;;;;15.40;93.50;;;;;;5073567;28;19938;-90
2022/10/01 00:28:38;;;;;;;;;;;15.50;93.60;;;;;;5073506;28;20003;-90
2022/10/01 00:31:05;;;;;;;;;;;15.50;93.60;;;;;;5073566;28;19942;-90
2022/10/01 00:33:31;;;;;;;;;;;15.40;93.70;;;;;;5073605;28;19943;-89
2022/10/01 00:35:57;;;;;;;;;;;15.40;93.80;;;;;;5073472;28;20341;-90
2022/10/01 00:38:23;;;;;;;;;;;15.30;93.80;;;;;;5073392;28;19947;-90
2022/10/01 00:40:48;;;;;;;;;;;15.40;93.70;;;;;;5073377;28;19945;-90
2022/10/01 00:43:21;;;;;;;;;;;15.30;93.70;;;;;;5073655;28;19955;-90
2022/10/01 00:45:47;;;;;;;;;;;15.30;93.60;;;;;;5072738;28;19939;-90
2022/10/01 00:48:13;;;;;;;;;;;15.30;93.60;;;;;;5073580;28;19943;-90
2022/10/01 00:50:39;;;;;;;;;;;15.30;93.50;;;;;;5073075;28;20389;-90
2022/10/01 00:53:06;;;;;;;;;;;15.10;93.40;;;;;;5073126;28;19951;-90
2022/10/01 00:55:36;;;;;;;;;;;15.20;93.40;;;;;;5073322;28;20032;-90
2022/10/01 00:58:06;;;;;;;;;;;15.20;93.50;;;;;;5073192;28;19939;-90
2022/10/01 01:00:32;;;;;;;;;;;15.20;93.40;;;;;;5073225;28;19943;-90
2022/10/01 01:02:57;;;;;;;;;;;15.20;93.50;;;;;;5073286;28;19985;-90
2022/10/01 01:05:23;;;;;;;;;;;15.10;93.40;;;;;;5073055;28;20411;-90
2022/10/01 01:07:50;;;;;;;;;;;15.10;93.30;;;;;;5073137;28;20381;-90
2022/10/01 01:10:18;;;;;;;;;;;15.00;93.30;;;;;;5073167;28;19935;-90
2022/10/01 01:12:52;;;;;;;;;;;15.10;93.30;;;;;;5073142;28;19935;-90
2022/10/01 01:15:37;;;;;;;;;;;15.10;93.40;;;;;;5072866;28;20347;-90
2022/10/01 01:18:17;;;;;;;;;;;15.00;93.40;;;;;;5061961;28;19944;-90
2022/10/01 01:20:45;;;;;;;;;;;15.10;93.20;;;;;;5073023;28;19944;-90
2022/10/01 01:23:13;;;;;;;;;;;15.10;93.20;;;;;;5072590;28;19971;-90
2022/10/01 01:25:55;;;;;;;;;;;15.10;93.10;;;;;;5072903;28;19992;-90
2022/10/01 01:28:24;;;;;;;;;;;15.00;93.10;;;;;;5072957;28;20031;-90
2022/10/01 01:30:51;;;;;;;;;;;15.10;93.40;;;;;;5072882;28;20397;-90
2022/10/01 01:33:19;;;;;;;;;;;15.10;93.70;;;;;;5072748;28;20034;-90
2022/10/01 01:35:48;;;;;;;;;;;15.10;93.90;;;;;;5072910;28;19940;-90
2022/10/01 01:38:16;;;;;;;;;;;15.00;94.10;;;;;;5072857;28;20426;-90
2022/10/01 01:40:43;;;;;;;;;;;15.00;94.20;;;;;;5072721;28;19946;-90
2022/10/01 01:43:14;;;;;;;;;;;15.00;94.20;;;;;;5072605;28;19944;-90
2022/10/01 01:45:41;;;;;;;;;;;15.10;94.10;;;;;;5071436;28;19995;-90
2022/10/01 01:48:08;;;;;;;;;;;15.10;94.10;;;;;;5072741;28;19936;-90
2022/10/01 01:50:39;;;;;;;;;;;15.10;94.00;;;;;;5072311;28;19950;-90
2022/10/01 01:53:05;;;;;;;;;;;15.10;94.00;;;;;;5072756;28;19987;-90
2022/10/01 01:55:33;;;;;;;;;;;15.10;93.90;;;;;;5073183;28;19939;-90
2022/10/01 01:57:59;;;;;;;;;;;15.00;94.00;;;;;;5074942;28;20322;-90
2022/10/01 02:00:25;;;;;;;;;;;15.00;94.00;;;;;;5076255;28;19939;-90
2022/10/01 02:02:52;;;;;;;;;;;14.90;94.10;;;;;;5076182;28;19948;-90
2022/10/01 02:05:20;;;;;;;;;;;14.90;94.40;;;;;;5076104;28;19999;-90
2022/10/01 02:08:04;;;;;;;;;;;14.90;94.60;;;;;;5076171;28;19938;-90
2022/10/01 02:10:32;;;;;;;;;;;14.90;94.80;;;;;;5076015;28;19988;-90
2022/10/01 02:13:16;;;;;;;;;;;14.90;95.00;;;;;;5076286;28;19963;-90
2022/10/01 02:16:06;;;;;;;;;;;14.90;95.10;;;;;;5075644;28;19974;-90
2022/10/01 02:18:47;;;;;;;;;;;14.90;95.10;;;;;;5075602;28;19965;-90
2022/10/01 02:21:33;;;;;;;;;;;14.90;95.10;;;;;;5075883;28;20103;-90
2022/10/01 02:24:08;;;;;;;;;;;14.80;95.00;;;;;;5075745;28;19965;-90
2022/10/01 02:26:35;;;;;;;;;;;14.90;95.00;;;;;;5075736;28;19959;-90
2022/10/01 02:29:04;;;;;;;;;;;14.80;94.90;;;;;;5075779;28;20022;-90
2022/10/01 02:31:29;;;;;;;;;;;14.80;94.90;;;;;;5075747;28;19943;-90
2022/10/01 02:33:57;;;;;;;;;;;14.80;94.80;;;;;;5075599;28;20444;-90
2022/10/01 02:36:24;;;;;;;;;;;14.80;94.80;;;;;;5075608;28;19942;-90
2022/10/01 02:38:51;;;;;;;;;;;14.80;94.80;;;;;;5075566;28;20287;-90
2022/10/01 02:41:19;;;;;;;;;;;14.80;94.80;;;;;;5075460;28;20412;-90
2022/10/01 02:43:54;;;;;;;;;;;14.80;94.70;;;;;;5075475;28;19955;-90
2022/10/01 02:46:22;;;;;;;;;;;14.70;94.70;;;;;;5075395;28;19935;-90
2022/10/01 02:48:48;;;;;;;;;;;14.70;94.70;;;;;;5075243;28;19946;-90
2022/10/01 02:51:20;;;;;;;;;;;14.70;94.70;;;;;;5075437;28;20051;-90
2022/10/01 02:53:49;;;;;;;;;;;14.60;94.70;;;;;;5075310;28;19939;-90
2022/10/01 02:57:21;;;;;;;;;;;14.50;94.70;;;;;;5075497;28;19943;-90
2022/10/01 02:59:00;;;;;;;;;;;14.50;94.80;;;;;;5075029;28;19987;-90
2022/10/01 03:01:26;;;;;;;;;;;14.50;94.80;;;;;;5075121;28;19940;-90
2022/10/01 03:03:52;;;;;;;;;;;14.50;94.80;;;;;;5074987;28;20011;-90
2022/10/01 03:06:18;;;;;;;;;;;14.40;94.90;;;;;;5074986;28;19938;-90
2022/10/01 03:08:43;;;;;;;;;;;14.40;94.90;;;;;;5072842;28;20476;-90
2022/10/01 03:11:09;;;;;;;;;;;14.40;95.00;;;;;;5074909;28;19946;-90
2022/10/01 03:13:35;;;;;;;;;;;14.30;94.90;;;;;;5074759;28;19946;-89
2022/10/01 03:16:01;;;;;;;;;;;14.30;94.80;;;;;;5074714;28;20064;-90
2022/10/01 03:18:26;;;;;;;;;;;14.30;94.60;;;;;;5074582;28;20157;-90
2022/10/01 03:20:52;;;;;;;;;;;14.30;94.50;;;;;;5074533;28;20024;-90
2022/10/01 03:23:17;;;;;;;;;;;14.30;94.40;;;;;;5074537;28;19948;-90
2022/10/01 03:25:43;;;;;;;;;;;14.30;94.40;;;;;;5074595;28;19943;-90
2022/10/01 03:28:08;;;;;;;;;;;14.30;94.40;;;;;;5074513;28;19957;-90
2022/10/01 03:30:34;;;;;;;;;;;14.30;94.40;;;;;;5074410;28;19984;-90
2022/10/01 03:32:59;;;;;;;;;;;14.30;94.40;;;;;;5074507;28;19941;-90
2022/10/01 03:35:25;;;;;;;;;;;14.30;94.30;;;;;;5074382;28;20467;-90
2022/10/01 03:37:51;;;;;;;;;;;14.30;94.30;;;;;;5074296;28;19955;-90
2022/10/01 03:40:17;;;;;;;;;;;14.40;94.30;;;;;;5074346;28;20401;-90
2022/10/01 03:42:42;;;;;;;;;;;14.40;94.30;;;;;;5074333;28;19943;-90
2022/10/01 03:45:08;;;;;;;;;;;14.40;94.30;;;;;;5073570;28;19969;-90
2022/10/01 03:47:34;;;;;;;;;;;14.40;94.30;;;;;;5074296;28;19945;-90
2022/10/01 03:49:59;;;;;;;;;;;14.40;94.20;;;;;;5072232;28;20384;-90
2022/10/01 03:52:25;;;;;;;;;;;14.50;94.20;;;;;;5073980;28;19964;-91
2022/10/01 03:54:50;;;;;;;;;;;14.50;94.20;;;;;;5074186;28;19942;-90
2022/10/01 03:57:16;;;;;;;;;;;14.40;94.10;;;;;;5073969;28;19943;-91
2022/10/01 03:59:41;;;;;;;;;;;14.40;94.00;;;;;;5073980;28;19948;-90
2022/10/01 04:02:07;;;;;;;;;;;14.40;94.10;;;;;;5073941;28;20090;-90
2022/10/01 04:04:32;;;;;;;;;;;14.40;94.10;;;;;;5073691;28;20446;-90
2022/10/01 04:06:58;;;;;;;;;;;14.30;94.10;;;;;;5073923;28;19980;-91
2022/10/01 04:09:24;;;;;;;;;;;14.40;94.10;;;;;;5073791;28;19982;-90
2022/10/01 04:11:49;;;;;;;;;;;14.30;94.10;;;;;;5073624;28;19945;-90
2022/10/01 04:14:15;;;;;;;;;;;14.30;94.00;;;;;;5073763;28;19991;-91
2022/10/01 04:16:40;;;;;;;;;;;14.30;93.90;;;;;;5073507;28;20024;-90
2022/10/01 04:19:06;;;;;;;;;;;14.20;93.90;;;;;;5073440;28;19949;-90
2022/10/01 04:21:31;;;;;;;;;;;14.20;93.90;;;;;;5073495;28;20030;-90
2022/10/01 04:23:58;;;;;;;;;;;14.10;93.90;;;;;;5073563;28;20011;-90
2022/10/01 04:26:24;;;;;;;;;;;14.10;94.00;;;;;;5073556;28;19939;-90
2022/10/01 04:28:49;;;;;;;;;;;14.10;94.00;;;;;;5073125;28;19942;-90
2022/10/01 04:31:23;;;;;;;;;;;14.10;94.10;;;;;;5073271;28;19950;-90
2022/10/01 04:33:49;;;;;;;;;;;14.10;94.20;;;;;;5073452;28;19944;-91
2022/10/01 04:36:15;;;;;;;;;;;14.10;94.30;;;;;;5073440;28;19973;-91
2022/10/01 04:38:40;;;;;;;;;;;14.00;94.30;;;;;;5073372;28;20033;-91
2022/10/01 04:41:08;;;;;;;;;;;13.90;94.30;;;;;;5071974;28;19953;-91
2022/10/01 04:43:33;;;;;;;;;;;13.90;94.30;;;;;;5073272;28;19960;-90
2022/10/01 04:45:59;;;;;;;;;;;13.80;94.30;;;;;;5073322;28;19949;-90
2022/10/01 04:48:24;;;;;;;;;;;13.70;94.40;;;;;;5073219;28;19970;-90
2022/10/01 04:50:50;;;;;;;;;;;13.60;94.50;;;;;;5071742;28;19959;-90
2022/10/01 04:53:15;;;;;;;;;;;13.50;94.60;;;;;;5061950;28;20340;-91
2022/10/01 04:55:41;;;;;;;;;;;13.40;94.60;;;;;;5051901;28;19996;-91
2022/10/01 04:58:06;;;;;;;;;;;13.40;94.60;;;;;;5053149;28;20008;-91
2022/10/01 05:00:32;;;;;;;;;;;13.40;94.60;;;;;;5053020;28;19946;-90
2022/10/01 05:02:58;;;;;;;;;;;13.30;94.80;;;;;;5053031;28;19940;-91
2022/10/01 05:05:26;;;;;;;;;;;13.30;94.90;;;;;;5052971;28;19958;-91
2022/10/01 05:07:51;;;;;;;;;;;13.40;95.10;;;;;;5053087;28;20025;-90
2022/10/01 05:10:18;;;;;;;;;;;13.40;95.30;;;;;;5052995;28;20459;-90
2022/10/01 05:12:45;;;;;;;;;;;13.40;95.40;;;;;;5053011;28;19977;-90
2022/10/01 05:15:11;;;;;;;;;;;13.50;95.60;;;;;;5056097;28;21220;-90
2022/10/01 05:17:36;;;;;;;;;;;13.40;95.60;;;;;;5072562;28;19950;-90
2022/10/01 05:20:03;;;;;;;;;;;13.40;95.60;;;;;;5062677;28;19940;-90
2022/10/01 05:22:29;;;;;;;;;;;13.40;95.50;;;;;;5072274;28;19952;-90
2022/10/01 05:24:54;;;;;;;;;;;13.50;95.60;;;;;;5060335;28;20122;-90
2022/10/01 05:27:20;;;;;;;;;;;13.40;95.50;;;;;;5072502;28;19950;-90
2022/10/01 05:29:45;;;;;;;;;;;13.40;95.50;;;;;;5066346;28;19947;-90
2022/10/01 05:32:11;;;;;;;;;;;13.50;95.70;;;;;;5056248;28;19941;-90
2022/10/01 05:34:37;;;;;;;;;;;13.40;95.60;;;;;;5066680;28;20356;-90
2022/10/01 05:37:03;;;;;;;;;;;13.50;95.70;;;;;;5076276;28;20307;-90
2022/10/01 05:39:29;;;;;;;;;;;13.60;95.60;;;;;;5075933;28;20000;-90
2022/10/01 05:41:55;;;;;;;;;;;13.60;95.50;;;;;;5075833;28;20062;-90
2022/10/01 05:44:21;;;;;;;;;;;13.60;95.50;;;;;;5074916;28;19969;-90
2022/10/01 05:46:47;;;;;;;;;;;13.60;95.40;;;;;;5072648;28;20021;-90
2022/10/01 05:49:14;;;;;;;;;;;13.60;95.30;;;;;;5071100;28;19943;-90
2022/10/01 05:51:39;;;;;;;;;;;13.60;95.30;;;;;;5074242;28;19992;-90
2022/10/01 05:54:05;;;;;;;;;;;13.70;95.40;;;;;;5075117;28;20437;-90
2022/10/01 05:56:30;;;;;;;;;;;13.70;95.30;;;;;;5075890;28;20313;-90
2022/10/01 05:58:56;;;;;;;;;;;13.70;95.30;;;;;;5075760;28;19946;-90
2022/10/01 06:01:21;;;;;;;;;;;13.70;95.20;;;;;;5075602;28;19986;-90
2022/10/01 06:03:51;;;;;;;;;;;13.70;95.20;;;;;;5074889;28;19971;-90
2022/10/01 06:06:23;;;;;;;;;;;13.70;95.00;;;;;;5075792;28;19955;-90
2022/10/01 06:08:49;;;;;;;;;;;13.70;95.10;;;;;;5073555;28;19954;-90
2022/10/01 06:11:15;;;;;;;;;;;13.70;95.00;;;;;;5074265;28;20296;-90
2022/10/01 06:13:43;;;;;;;;;;;13.80;95.10;;;;;;5070766;28;19949;-90
2022/10/01 06:16:09;;;;;;;;;;;13.90;95.20;;;;;;5059306;28;20335;-90
2022/10/01 06:18:35;;;;;;;;;;;13.90;95.20;;;;;;5056214;28;19955;-90
2022/10/01 06:21:01;;;;;;;;;;;14.00;95.20;;;;;;5062656;28;20300;-90
2022/10/01 06:23:26;;;;;;;;;;;14.00;95.10;;;;;;5065787;28;20364;-90
2022/10/01 06:25:53;;;;;;;;;;;14.00;95.20;;;;;;5051972;28;19944;-89
2022/10/01 06:28:18;;;;;;;;;;;14.20;95.20;;;;;;5055541;28;19969;-90
2022/10/01 06:30:44;;;;;;;;;;;14.30;95.10;;;;;;5054831;28;20394;-90
2022/10/01 06:33:14;;;;;;;;;;;14.40;95.00;;;;;;5049823;28;20003;-89
2022/10/01 06:35:41;;;;;;;;;;;14.40;94.80;;;;;;5054815;28;20447;-90
2022/10/01 06:38:08;;;;;;;;;;;14.40;94.70;;;;;;5055452;28;19942;-90
2022/10/01 06:40:34;;;;;;;;;;;14.40;94.70;;;;;;5055231;28;19998;-90
2022/10/01 06:42:59;;;;;;;;;;;14.40;94.60;;;;;;5053200;28;19953;-90
2022/10/01 06:45:25;;;;;;;;;;;14.40;94.70;;;;;;5055173;28;20016;-90
2022/10/01 06:47:54;;;;;;;;;;;14.40;94.70;;;;;;5051556;28;19970;-90
2022/10/01 06:50:20;;;;;;;;;;;14.40;94.70;;;;;;5051088;28;19965;-90
2022/10/01 06:52:48;;;;;;;;;;;14.40;94.80;;;;;;5052956;28;20444;-90
2022/10/01 06:55:17;;;;;;;;;;;14.50;94.80;;;;;;5054900;28;19938;-90
2022/10/01 06:57:43;;;;;;;;;;;14.50;94.90;;;;;;5054347;28;19946;-90
2022/10/01 07:00:10;;;;;;;;;;;14.60;94.80;;;;;;5054783;28;19946;-90
2022/10/01 07:02:35;;;;;;;;;;;14.60;94.80;;;;;;5053993;28;20045;-90
2022/10/01 07:05:01;;;;;;;;;;;14.70;94.80;;;;;;5054893;28;20057;-90
2022/10/01 07:07:30;;;;;;;;;;;14.70;94.60;;;;;;5054585;28;19952;-90
2022/10/01 07:09:59;;;;;;;;;;;14.80;94.60;;;;;;5050734;28;19984;-90
2022/10/01 07:12:25;;;;;;;;;;;14.90;94.50;;;;;;5053660;28;19950;-90
2022/10/01 07:14:50;;;;;;;;;;;14.90;94.20;;;;;;5057595;22;19974;-90
2022/10/01 07:17:16;;;;;;;;;;;14.90;94.20;;;;;;5031115;28;20029;-90
2022/10/01 07:19:42;;;;;;;;;;;14.90;93.90;;;;;;5033950;28;19945;-90
2022/10/01 07:22:07;;;;;;;;;;;15.00;94.00;;;;;;5031145;28;19947;-90
2022/10/01 07:24:33;;;;;;;;;;;15.10;93.90;;;;;;5034414;28;19964;-90
2022/10/01 07:26:59;;;;;;;;;;;15.20;93.60;;;;;;5027648;28;20041;-90
2022/10/01 07:29:24;;;;;;;;;;;15.30;93.40;;;;;;5028190;28;19947;-90
2022/10/01 07:31:54;;;;;;;;;;;15.30;93.20;;;;;;5027711;28;20034;-90
2022/10/01 07:34:23;;;;;;;;;;;15.40;92.80;;;;;;5031508;28;19948;-90
2022/10/01 07:36:49;;;;;;;;;;;15.50;92.50;;;;;;5032196;28;19989;-89
2022/10/01 07:39:15;;;;;;;;;;;15.60;92.00;;;;;;5029962;28;19943;-90
2022/10/01 07:41:41;;;;;;;;;;;15.70;92.20;;;;;;5024976;28;19992;-90
2022/10/01 07:44:06;;;;;;;;;;;15.80;90.80;;;;;;5033775;28;19963;-90
2022/10/01 07:46:32;;;;;;;;;;;15.90;91.00;;;;;;5026559;28;20041;-90
2022/10/01 07:48:57;;;;;;;;;;;15.90;90.50;;;;;;5033813;28;20466;-90
2022/10/01 07:51:25;;;;;;;;;;;16.00;91.20;;;;;;5041679;28;20460;-90
2022/10/01 07:53:51;;;;;;;;;;;16.10;90.50;;;;;;5047166;28;20496;-90
2022/10/01 07:56:16;;;;;;;;;;;16.20;90.70;;;;;;5050472;28;20029;-90
2022/10/01 07:58:42;;;;;;;;;;;16.20;90.60;;;;;;5044568;28;20067;-90
2022/10/01 08:01:08;;;;;;;;;;;16.20;90.30;;;;;;5050463;28;19951;-90
2022/10/01 08:03:34;;;;;;;;;;;16.30;90.50;;;;;;5052955;28;19957;-90
2022/10/01 08:06:02;;;;;;;;;;;16.30;89.70;;;;;;5044991;28;20415;-90
2022/10/01 08:08:29;;;;;;;;;;;16.30;89.10;;;;;;5051147;28;19952;-89
2022/10/01 08:10:54;;;;;;;;;;;16.30;89.10;;;;;;5052569;28;19943;-89
2022/10/01 08:13:23;;;;;;;;;;;16.30;89.50;;;;;;5046596;28;19941;-89
2022/10/01 08:15:52;;;;;;;;;;;16.40;89.70;;;;;;5028799;28;19972;-89
2022/10/01 08:18:18;;;;;;;;;;;16.40;89.60;;;;;;5039392;28;19948;-89
2022/10/01 08:20:43;;;;;;;;;;;16.40;89.50;;;;;;5041957;28;19948;-89
2022/10/01 08:23:10;;;;;;;;;;;16.40;89.50;;;;;;5053501;28;19956;-90
2022/10/01 08:25:36;;;;;;;;;;;16.30;89.50;;;;;;5047041;28;20065;-90
2022/10/01 08:28:02;;;;;;;;;;;16.40;89.10;;;;;;5053775;28;20022;-89
2022/10/01 08:30:28;;;;;;;;;;;16.40;88.80;;;;;;5052279;28;20472;-89
2022/10/01 08:32:54;;;;;;;;;;;16.40;89.10;;;;;;5044117;28;19946;-90
2022/10/01 08:35:20;;;;;;;;;;;16.40;89.40;;;;;;5045738;28;19986;-89
2022/10/01 08:37:46;;;;;;;;;;;16.40;89.00;;;;;;5052564;28;20020;-90
2022/10/01 08:40:11;;;;;;;;;;;16.60;89.70;;;;;;5053039;28;20354;-90
2022/10/01 08:42:43;;;;;;;;;;;16.70;89.70;;;;;;5047671;28;20513;-90
2022/10/01 08:45:30;;;;;;;;;;;16.60;88.90;;;;;;5063104;28;19965;-90
2022/10/01 08:48:11;;;;;;;;;;;16.60;88.50;;;;;;5022020;28;19950;-90
2022/10/01 08:50:39;;;;;;;;;;;16.80;88.70;;;;;;5051892;28;20402;-90
2022/10/01 08:53:09;;;;;;;;;;;16.90;88.50;;;;;;5049316;28;20393;-90
2022/10/01 08:55:36;;;;;;;;;;;16.90;88.10;;;;;;5051882;28;19947;-90
2022/10/01 08:58:05;;;;;;;;;;;17.10;88.20;;;;;;5051572;28;20401;-90
2022/10/01 09:00:32;;;;;;;;;;;17.10;86.70;;;;;;5052643;28;19987;-90
2022/10/01 09:03:02;;;;;;;;;;;17.10;87.00;;;;;;5052886;28;19994;-90
2022/10/01 09:05:35;;;;;;;;;;;17.20;86.10;;;;;;5053321;28;20000;-90
2022/10/01 09:08:03;;;;;;;;;;;17.20;85.20;;;;;;5051101;28;19990;-90
2022/10/01 09:10:42;;;;;;;;;;;17.30;85.20;;;;;;5043382;28;19951;-90
2022/10/01 09:13:17;;;;;;;;;;;17.40;83.90;;;;;;5049173;28;19966;-90
2022/10/01 09:15:52;;;;;;;;;;;17.70;86.10;;;;;;5056266;28;20030;-90
2022/10/01 09:18:41;;;;;;;;;;;17.80;83.60;;;;;;5056530;28;20031;-90
2022/10/01 09:21:36;;;;;;;;;;;17.90;83.60;;;;;;5019215;28;19982;-90
2022/10/01 09:24:03;;;;;;;;;;;18.00;82.60;;;;;;5006695;28;19969;-90
2022/10/01 09:26:29;;;;;;;;;;;18.00;82.60;;;;;;5055137;28;19953;-90
2022/10/01 09:28:54;;;;;;;;;;;18.10;80.40;;;;;;5056662;28;19943;-90
2022/10/01 09:31:23;;;;;;;;;;;18.20;81.40;;;;;;5056552;28;19945;-90
2022/10/01 09:33:54;;;;;;;;;;;18.20;81.30;;;;;;5055961;28;20444;-90
2022/10/01 09:36:33;;;;;;;;;;;18.10;76.30;;;;;;5056619;28;19952;-89
2022/10/01 09:39:10;;;;;;;;;;;18.00;77.20;;;;;;5055601;28;19950;-90
2022/10/01 09:41:36;;;;;;;;;;;18.00;77.20;;;;;;5055651;28;19982;-90
2022/10/01 09:44:01;;;;;;;;;;;18.10;78.60;;;;;;5056306;28;20380;-90
2022/10/01 09:46:27;;;;;;;;;;;18.00;77.60;;;;;;5056644;28;19951;-90
2022/10/01 09:48:56;;;;;;;;;;;18.10;77.90;;;;;;5056353;28;20371;-90
2022/10/01 09:51:25;;;;;;;;;;;18.10;78.40;;;;;;5055670;28;19963;-90
2022/10/01 09:54:00;;;;;;;;;;;18.20;78.20;;;;;;5056157;28;19942;-90
2022/10/01 09:56:29;;;;;;;;;;;18.30;77.90;;;;;;5038191;28;19982;-90
2022/10/01 09:58:58;;;;;;;;;;;18.40;78.10;;;;;;5056460;28;19945;-90
2022/10/01 10:01:33;;;;;;;;;;;18.50;78.50;;;;;;5055796;28;20474;-90
2022/10/01 10:03:58;;;;;;;;;;;18.50;77.70;;;;;;5055805;28;19958;-90
2022/10/01 10:06:26;;;;;;;;;;;18.60;76.80;;;;;;5055875;28;19937;-90
2022/10/01 10:08:54;;;;;;;;;;;18.60;77.10;;;;;;5055518;28;19952;-90
2022/10/01 10:11:21;;;;;;;;;;;18.60;77.30;;;;;;5037815;28;19949;-90
2022/10/01 10:14:04;;;;;;;;;;;18.60;77.20;;;;;;5055042;28;20034;-90
2022/10/01 10:16:32;;;;;;;;;;;18.60;76.40;;;;;;5055372;28;19989;-90
2022/10/01 10:19:24;;;;;;;;;;;18.70;76.40;;;;;;5055861;28;19943;-90
2022/10/01 10:21:51;;;;;;;;;;;18.70;75.10;;;;;;5051476;28;19952;-90
2022/10/01 10:24:21;;;;;;;;;;;18.80;77.00;;;;;;5055335;28;20046;-90
2022/10/01 10:26:51;;;;;;;;;;;19.00;74.80;;;;;;5055729;28;19939;-90
2022/10/01 10:29:24;;;;;;;;;;;19.10;74.40;;;;;;5055661;28;19939;-90
2022/10/01 10:31:50;;;;;;;;;;;19.00;75.00;;;;;;5055243;28;20426;-90
2022/10/01 10:34:31;;;;;;;;;;;19.00;74.60;;;;;;5055583;28;20019;-90
2022/10/01 10:36:58;;;;;;;;;;;19.00;74.50;;;;;;5055471;28;19941;-90
2022/10/01 10:39:25;;;;;;;;;;;19.20;73.40;;;;;;5055403;28;19946;-90
2022/10/01 10:41:51;;;;;;;;;;;19.20;73.80;;;;;;5055116;28;20403;-90
2022/10/01 10:44:20;;;;;;;;;;;19.30;73.30;;;;;;5055346;28;20047;-90
2022/10/01 10:46:46;;;;;;;;;;;19.40;72.70;;;;;;5055302;28;19946;-90
2022/10/01 10:49:25;;;;;;;;;;;19.30;72.60;;;;;;5055487;28;19939;-90
2022/10/01 10:51:54;;;;;;;;;;;19.30;71.90;;;;;;5054731;28;19968;-90
2022/10/01 10:54:25;;;;;;;;;;;19.40;72.50;;;;;;5054637;28;20336;-90
2022/10/01 10:57:15;;;;;;;;;;;19.30;71.20;;;;;;5055345;28;19944;-90
2022/10/01 10:59:40;;;;;;;;;;;19.40;71.40;;;;;;5044620;28;19950;-90
2022/10/01 11:02:14;;;;;;;;;;;19.50;70.00;;;;;;5055016;28;20025;-90
2022/10/01 11:04:41;;;;;;;;;;;19.60;69.70;;;;;;5034932;28;20044;-90
2022/10/01 11:07:08;;;;;;;;;;;19.80;71.90;;;;;;5034987;28;19944;-90
2022/10/01 11:09:42;;;;;;;;;;;19.90;69.90;;;;;;5034939;28;19936;-90
2022/10/01 11:12:10;;;;;;;;;;;20.00;68.70;;;;;;5034975;28;20408;-90
2022/10/01 11:14:48;;;;;;;;;;;20.00;67.00;;;;;;5053651;28;19946;-90
2022/10/01 11:17:31;;;;;;;;;;;19.90;69.00;;;;;;5034798;28;19960;-90
2022/10/01 11:20:12;;;;;;;;;;;20.20;68.90;;;;;;5016988;28;19941;-90
2022/10/01 11:22:37;;;;;;;;;;;20.30;67.00;;;;;;5034685;28;19939;-90
2022/10/01 11:25:03;;;;;;;;;;;20.30;67.50;;;;;;5034320;28;19964;-90
2022/10/01 11:27:37;;;;;;;;;;;20.20;65.90;;;;;;5034634;28;19948;-91
2022/10/01 11:30:03;;;;;;;;;;;20.10;66.60;;;;;;5034088;28;19951;-90
2022/10/01 11:32:28;;;;;;;;;;;19.90;67.10;;;;;;5034230;28;20303;-90
2022/10/01 11:35:05;;;;;;;;;;;19.90;67.40;;;;;;5034381;28;20018;-90
2022/10/01 11:37:47;;;;;;;;;;;20.00;68.50;;;;;;5034481;28;20050;-91
2022/10/01 11:40:19;;;;;;;;;;;20.20;68.30;;;;;;5034380;28;19997;-91
2022/10/01 11:42:45;;;;;;;;;;;20.20;67.70;;;;;;5034143;28;20403;-90
2022/10/01 11:45:16;;;;;;;;;;;20.30;67.10;;;;;;5016512;28;19970;-91
2022/10/01 11:47:48;;;;;;;;;;;20.40;69.10;;;;;;5034268;28;20480;-90
2022/10/01 11:50:19;;;;;;;;;;;20.80;66.40;;;;;;5034406;28;19990;-90
2022/10/01 11:52:45;;;;;;;;;;;21.00;65.50;;;;;;5033690;28;19979;-90
2022/10/01 12:01:03;;;;;;;;;;;20.80;65.60;;;;;;5034038;28;19955;-90
2022/10/01 12:03:33;;;;;;;;;;;21.00;62.30;;;;;;5033563;28;19949;-90
2022/10/01 12:05:58;;;;;;;;;;;21.00;62.90;;;;;;5033736;28;19951;-90
2022/10/01 12:08:27;;;;;;;;;;;21.40;62.70;;;;;;5033849;28;20026;-90
2022/10/01 12:10:57;;;;;;;;;;;21.70;62.80;;;;;;5033858;28;19940;-90
2022/10/01 12:13:32;;;;;;;;;;;21.60;61.60;;;;;;5033611;28;20062;-90
2022/10/01 12:16:10;;;;;;;;;;;21.90;60.30;;;;;;5044875;28;20008;-90
2022/10/01 12:18:46;;;;;;;;;;;22.40;57.80;;;;;;5053574;28;19961;-90
2022/10/01 12:21:15;;;;;;;;;;;22.50;58.80;;;;;;5053559;28;19941;-90
2022/10/01 12:23:44;;;;;;;;;;;22.80;59.00;;;;;;5043817;28;19953;-91
2022/10/01 12:26:20;;;;;;;;;;;22.50;57.50;;;;;;5033608;28;20059;-90
2022/10/01 12:28:48;;;;;;;;;;;22.40;57.00;;;;;;5033553;28;20352;-90
2022/10/01 12:31:23;;;;;;;;;;;22.30;59.20;;;;;;5033470;28;19973;-90
2022/10/01 12:33:52;;;;;;;;;;;22.30;59.10;;;;;;5043591;28;20416;-90
2022/10/01 12:36:17;;;;;;;;;;;22.00;59.00;;;;;;5053312;28;20039;-90
2022/10/01 12:38:49;;;;;;;;;;;21.80;60.70;;;;;;5053313;28;19989;-90
2022/10/01 12:41:14;;;;;;;;;;;21.70;60.60;;;;;;5053188;28;20432;-90
2022/10/01 12:43:59;;;;;;;;;;;21.90;60.60;;;;;;5043952;28;20049;-90
2022/10/01 12:46:28;;;;;;;;;;;22.20;58.10;;;;;;5048409;28;19946;-90
2022/10/01 12:49:12;;;;;;;;;;;22.00;57.50;;;;;;5035248;28;20402;-90
2022/10/01 12:51:39;;;;;;;;;;;22.00;57.40;;;;;;5052904;28;20043;-90
2022/10/01 12:54:08;;;;;;;;;;;22.00;58.40;;;;;;5052258;28;19939;-90
2022/10/01 12:56:39;;;;;;;;;;;22.20;58.60;;;;;;5052798;28;19944;-90
2022/10/01 12:59:18;;;;;;;;;;;22.00;59.00;;;;;;5053038;28;19943;-90
2022/10/01 13:01:43;;;;;;;;;;;21.80;58.90;;;;;;5053026;28;19990;-90
2022/10/01 13:04:09;;;;;;;;;;;21.80;57.80;;;;;;5040156;28;20031;-90
2022/10/01 13:07:01;;;;;;;;;;;21.80;57.80;;;;;;5033087;28;19954;-90
2022/10/01 13:09:41;;;;;;;;;;;21.80;58.50;;;;;;5030826;28;19978;-90
2022/10/01 13:12:42;;;;;;;;;;;22.00;57.60;;;;;;5033051;28;19941;-90
2022/10/01 13:15:16;;;;;;;;;;;21.50;58.40;;;;;;4975951;28;20006;-90
2022/10/01 13:18:02;;;;;;;;;;;21.50;60.70;;;;;;5025997;28;19941;-90
2022/10/01 13:20:32;;;;;;;;;;;21.30;60.30;;;;;;5032331;28;19945;-91
2022/10/01 13:23:07;;;;;;;;;;;21.10;61.80;;;;;;5035490;28;20419;-90
2022/10/01 13:25:49;;;;;;;;;;;21.00;63.20;;;;;;5052793;28;19965;-90
2022/10/01 13:28:17;;;;;;;;;;;20.80;63.30;;;;;;5052809;28;19944;-90
2022/10/01 13:30:59;;;;;;;;;;;20.80;63.60;;;;;;5052800;28;19984;-91
2022/10/01 13:33:26;;;;;;;;;;;20.80;63.20;;;;;;5033131;28;19947;-90
2022/10/01 13:35:54;;;;;;;;;;;20.90;61.70;;;;;;5032875;28;19946;-90
2022/10/01 13:38:37;;;;;;;;;;;21.30;62.30;;;;;;5032812;28;19939;-90
2022/10/01 13:41:04;;;;;;;;;;;22.10;58.40;;;;;;5032946;28;20032;-90
2022/10/01 13:43:31;;;;;;;;;;;22.80;57.50;;;;;;5032659;28;19945;-90
2022/10/01 13:46:15;;;;;;;;;;;22.90;56.10;;;;;;5032709;28;19947;-90
2022/10/01 13:48:44;;;;;;;;;;;23.10;54.20;;;;;;5032628;28;19949;-90
2022/10/01 13:51:11;;;;;;;;;;;23.50;53.50;;;;;;5033343;28;20606;-90
2022/10/01 13:53:49;;;;;;;;;;;23.50;54.00;;;;;;5056349;28;19944;-90
2022/10/01 13:56:28;;;;;;;;;;;23.30;53.20;;;;;;5056256;28;19938;-90
2022/10/01 13:58:54;;;;;;;;;;;23.00;54.20;;;;;;5056135;28;19936;-90
2022/10/01 14:01:20;;;;;;;;;;;23.20;53.20;;;;;;5055935;28;20088;-90
2022/10/01 14:04:03;;;;;;;;;;;23.10;53.50;;;;;;5056024;28;19942;-90
2022/10/01 14:06:35;;;;;;;;;;;22.90;52.10;;;;;;5056103;28;19939;-90
2022/10/01 14:09:19;;;;;;;;;;;22.90;52.90;;;;;;5056309;28;19948;-90
2022/10/01 14:17:27;;;;;;;;;;;23.20;52.70;;;;;;5055897;28;20034;-90
2022/10/01 14:19:53;;;;;;;;;;;22.90;52.30;;;;;;5055812;28;19942;-90
2022/10/01 14:22:27;;;;;;;;;;;23.20;54.00;;;;;;5055598;28;19999;-90
2022/10/01 14:24:53;;;;;;;;;;;23.30;50.90;;;;;;5055912;28;19954;-90
2022/10/01 14:27:22;;;;;;;;;;;23.20;52.50;;;;;;5055117;28;20459;-90
2022/10/01 14:30:00;;;;;;;;;;;22.90;52.50;;;;;;5055507;28;20455;-90
2022/10/01 14:32:35;;;;;;;;;;;22.70;52.30;;;;;;5055606;28;19945;-90
2022/10/01 14:35:07;;;;;;;;;;;22.80;52.90;;;;;;5055509;28;19949;-90
2022/10/01 14:37:36;;;;;;;;;;;22.80;51.80;;;;;;5055226;28;20004;-90
2022/10/01 14:40:11;;;;;;;;;;;23.00;53.40;;;;;;5055518;28;19984;-90